Date,TemperatureHighF,TemperatureAvgF,TemperatureLowF,DewpointHighF,DewpointAvgF,DewpointLowF,HumidityHigh,HumidityAvg,HumidityLow,PressureMaxIn,PressureMinIn,WindSpeedMaxMPH,WindSpeedAvgMPH,GustSpeedMaxMPH,PrecipitationSumIn
2013-1-1,21.2,13.0,0.0,9.5,5.9,0.0,81,69,54,30.25,30.15,12,3,12,0.00
2013-1-2,29.1,20.8,9.1,18.0,12.0,2.9,78,69,51,30.23,30.09,15,4,15,0.00
2013-1-3,28.0,24.4,16.5,23.2,19.8,12.5,92,82,76,30.27,30.08,21,6,21,0.00
2013-1-4,34.6,23.4,12.8,23.3,17.3,8.4,87,77,61,30.24,30.11,24,7,24,0.00
2013-1-5,38.6,29.4,18.5,33.1,26.1,16.1,94,88,69,30.25,29.91,22,5,22,0.12
2013-1-6,35.2,27.8,18.7,32.8,23.5,15.9,91,84,76,30.33,29.89,24,6,24,0.00
2013-1-7,40.8,28.8,16.1,28.0,22.2,13.4,90,77,56,30.33,30.08,25,6,25,0.00
2013-1-8,42.2,34.6,25.9,31.3,28.2,23.0,91,78,64,30.15,29.98,23,5,23,0.00
2013-1-9,44.6,37.1,26.2,32.4,28.3,22.2,87,71,47,30.50,29.96,21,7,26,0.00
2013-1-10,44.9,33.0,21.6,36.5,28.0,19.4,96,83,51,30.51,29.89,23,4,23,0.50
2013-1-11,51.7,46.6,37.5,49.2,45.2,36.5,98,95,88,29.89,29.65,20,2,20,0.22
2013-1-12,52.3,41.1,28.1,48.2,35.6,24.7,88,81,67,29.97,29.66,10,0,10,0.00
2013-1-13,28.1,22.0,13.8,25.5,17.5,7.4,91,83,73,30.23,29.86,25,6,25,0.00
2013-1-14,24.7,17.0,10.5,13.2,9.8,6.2,83,73,58,30.46,30.23,16,3,16,0.00
2013-1-15,31.4,20.6,11.8,18.5,13.5,9.1,92,75,51,30.45,30.12,9,1,9,0.05
2013-1-16,33.8,27.0,15.3,30.6,20.4,12.1,92,77,58,30.12,29.81,19,5,24,0.01
2013-1-17,33.3,24.0,16.5,29.8,13.3,6.5,87,64,49,30.42,30.05,17,4,17,0.00
2013-1-18,43.5,31.4,14.9,32.3,23.8,10.9,87,74,61,30.44,29.86,32,8,32,0.11
2013-1-19,45.0,40.0,22.7,37.5,31.1,11.2,77,71,43,29.90,29.66,43,10,43,0.00
2013-1-20,22.5,15.1,10.8,11.5,4.6,1.9,70,63,53,30.30,29.89,34,7,34,0.00
2013-1-21,13.3,7.7,1.9,5.2,-1.7,-6.9,80,65,53,30.30,30.14,25,8,25,0.00
2013-1-22,9.8,4.0,-3.7,-1.7,-5.1,-10.5,76,65,55,30.42,30.29,17,5,17,0.00
2013-1-23,19.1,13.6,7.2,14.0,6.3,-2.3,85,73,60,30.38,30.12,23,5,23,0.00
2013-1-24,19.6,12.3,2.8,10.9,3.4,-4.1,74,67,54,30.67,30.38,18,3,18,0.00
2013-1-25,26.3,21.2,17.3,19.8,14.5,6.2,88,75,57,30.40,29.97,18,5,18,0.00
2013-1-26,26.5,19.4,9.1,17.4,10.4,4.6,83,69,49,30.41,30.19,11,2,11,0.04
2013-1-27,35.7,28.5,23.5,34.4,23.5,17.3,95,82,70,30.38,29.89,18,5,21,0.07
2013-1-28,45.9,40.6,35.6,45.0,39.0,33.3,97,94,88,29.94,29.78,19,5,19,0.23
2013-1-29,61.9,53.1,38.2,59.3,51.9,37.4,99,96,91,29.83,29.38,23,5,23,1.42
2013-1-30,42.9,31.1,18.8,41.8,29.4,14.5,97,93,82,29.61,29.19,26,5,26,0.38
2013-1-31,18.9,12.7,4.7,15.1,7.4,-0.4,85,79,72,30.17,29.60,25,10,25,0.00
2013-2-1,11.7,5.8,-1.3,8.6,-0.4,-6.4,87,75,64,30.37,30.17,22,7,22,0.00
2013-2-2,19.9,12.8,3.8,17.9,8.5,-1.1,92,83,70,30.20,30.04,14,3,14,0.00
2013-2-3,21.1,15.3,6.8,15.4,10.1,1.8,88,80,69,30.08,29.97,22,4,22,0.00
2013-2-4,26.1,18.9,8.8,22.3,15.4,4.0,100,86,78,30.05,29.91,12,1,12,0.00
2013-2-5,28.7,20.5,5.1,25.6,16.8,1.8,92,85,76,30.11,29.81,20,4,20,0.00
2013-2-6,35.9,25.7,6.3,30.1,19.9,3.5,92,79,64,30.26,30.10,14,2,14,0.12
2013-2-7,34.2,32.8,27.7,32.3,30.9,26.0,96,93,83,30.12,29.87,12,2,12,0.16
2013-2-8,27.5,23.9,21.0,26.0,21.7,19.0,94,91,88,30.41,29.98,7,1,7,0.00
2013-2-9,33.2,22.7,13.2,28.4,19.8,11.1,95,89,81,30.42,30.09,14,2,15,0.04
2013-2-10,45.6,35.6,18.7,43.8,33.8,16.8,97,93,74,30.10,29.45,29,7,29,0.78
2013-2-11,42.7,32.4,27.6,35.3,26.4,21.5,88,78,74,30.00,29.46,35,13,35,0.00
2013-2-12,28.0,24.5,20.4,22.7,19.8,17.8,91,82,74,30.10,29.91,19,5,19,0.00
2013-2-13,43.3,31.2,19.7,32.8,26.5,17.8,96,83,63,29.91,29.71,13,3,13,0.00
2013-2-14,37.5,34.9,29.4,33.4,29.0,21.9,89,79,62,29.97,29.60,29,6,29,0.00
2013-2-15,29.5,24.6,17.4,25.4,15.4,8.0,86,68,51,30.19,29.97,16,5,16,0.00
2013-2-16,18.5,14.1,7.8,10.2,5.7,2.8,80,69,55,30.22,30.15,14,3,14,0.00
2013-2-17,29.7,18.5,5.1,16.1,6.8,1.5,87,62,40,30.25,30.01,15,2,15,0.00
2013-2-18,49.7,38.5,26.9,44.5,31.4,16.1,94,76,63,30.01,29.38,25,9,25,0.40
2013-2-19,29.2,15.3,10.3,26.9,10.1,2.3,91,80,67,30.20,29.51,32,10,32,0.00
2013-2-20,22.2,14.5,7.7,12.9,7.3,1.4,85,73,64,30.39,30.20,21,4,21,0.00
2013-2-21,28.2,23.4,13.0,24.2,19.6,9.4,89,85,81,30.42,30.03,34,4,34,0.00
2013-2-22,32.5,28.2,25.1,30.5,26.2,23.4,94,92,89,30.03,29.80,27,5,27,0.05
2013-2-23,29.7,25.6,20.3,25.5,20.4,15.7,90,81,67,29.95,29.87,18,5,18,0.03
2013-2-24,37.7,25.5,13.0,26.1,19.3,10.1,90,78,61,30.16,29.95,10,2,10,0.06
2013-2-25,42.4,29.7,16.4,30.5,23.3,14.2,93,78,55,30.19,29.99,13,1,13,0.00
2013-2-26,35.0,33.2,30.9,31.6,29.7,27.0,100,87,74,29.99,29.55,35,7,35,0.00
2013-2-27,34.4,32.3,30.9,33.6,31.5,30.1,97,97,96,29.72,29.52,12,3,12,0.31
2013-2-28,35.3,31.6,26.1,31.5,28.4,21.2,96,88,78,30.08,29.71,16,4,16,0.21
2013-3-1,26.2,25.1,24.2,22.9,21.4,19.7,91,86,81,30.21,30.06,16,4,16,0.00
2013-3-2,30.7,22.6,11.2,19.9,16.1,7.6,87,76,60,30.22,30.17,12,2,12,0.14
2013-3-3,32.9,18.8,5.2,16.8,10.5,2.4,92,72,41,30.18,30.10,7,1,7,0.02
2013-3-4,32.5,23.5,10.1,27.4,18.5,7.1,91,81,69,30.15,30.03,19,3,19,0.00
2013-3-5,32.6,30.4,27.6,29.8,27.6,25.3,95,89,77,30.03,29.84,19,4,19,0.08
2013-3-6,34.4,30.1,26.7,28.9,26.3,23.9,92,86,78,30.30,30.00,16,4,16,0.00
2013-3-7,36.5,29.6,20.8,25.7,23.0,18.0,89,77,63,30.43,30.29,9,1,9,0.03
2013-3-8,44.0,29.8,16.1,29.5,23.7,13.9,94,79,53,30.49,30.30,15,2,15,0.00
2013-3-9,45.1,37.5,29.7,35.5,30.6,24.8,92,76,61,30.30,29.81,21,5,21,0.08
2013-3-10,46.2,43.0,39.8,45.4,41.4,35.1,98,94,67,29.83,29.60,20,4,20,1.06
2013-3-11,45.9,37.0,32.8,44.8,36.0,30.2,98,96,90,29.75,29.51,18,4,18,0.11
2013-3-12,34.9,30.5,25.1,30.6,26.8,22.5,94,86,64,30.00,29.74,21,7,21,0.07
2013-3-13,32.5,25.8,19.7,22.2,16.2,10.9,92,68,44,30.32,29.99,20,5,21,0.03
2013-3-14,38.7,29.2,18.8,28.9,21.7,14.5,91,74,51,30.33,30.08,9,3,15,0.00
2013-3-15,38.6,33.3,29.5,35.1,31.0,27.0,100,91,81,30.09,29.77,16,2,17,0.18
2013-3-16,32.5,30.2,28.2,30.9,26.9,22.1,95,87,75,30.12,29.75,17,3,18,0.00
2013-3-17,32.4,28.7,22.4,25.2,20.7,15.2,81,72,61,30.23,30.01,23,4,23,0.00
2013-3-18,34.9,30.1,20.9,32.3,26.4,14.6,93,86,71,30.03,29.59,30,7,30,0.14
2013-3-19,30.4,22.6,15.3,16.2,13.3,9.2,81,68,50,30.06,29.74,31,12,31,0.00
2013-3-20,24.2,17.9,12.5,14.4,8.4,3.9,82,66,58,30.10,30.03,24,8,24,0.00
2013-3-21,31.0,21.6,12.3,17.8,12.0,5.6,78,66,53,30.07,30.01,15,4,16,0.00
2013-3-22,38.3,26.9,16.1,22.0,17.2,11.5,85,68,47,30.09,30.01,10,1,10,0.00
2013-3-23,39.2,29.9,21.2,27.3,22.9,18.3,91,76,53,30.15,30.04,14,1,14,0.00
2013-3-24,36.7,32.8,30.9,29.4,27.0,24.9,90,79,68,30.05,29.70,29,5,29,0.00
2013-3-25,33.5,31.4,29.7,28.6,26.6,25.0,87,82,78,30.08,29.73,22,4,22,0.00
2013-3-26,42.2,35.4,31.6,28.8,27.0,25.7,81,72,56,30.24,30.07,14,3,14,0.00
2013-3-27,41.8,35.7,26.6,29.1,25.0,21.6,82,66,47,30.31,30.23,11,2,11,0.00
2013-3-28,49.2,35.8,23.7,28.0,24.3,20.4,90,66,41,30.34,30.28,9,1,9,0.00
2013-3-29,53.1,37.9,25.8,29.9,25.7,22.2,91,64,37,30.32,30.23,12,1,12,0.00
2013-3-30,59.9,43.6,26.0,41.9,32.4,21.8,92,67,43,30.25,29.81,23,5,23,0.00
2013-3-31,56.4,44.4,34.9,42.7,36.4,24.7,93,75,45,29.87,29.67,29,7,29,0.00
2013-4-1,38.9,33.1,28.2,24.9,18.9,15.2,74,56,42,30.18,29.85,21,5,21,0.00
2013-4-2,42.9,33.1,24.4,20.0,17.7,14.9,76,54,34,30.31,30.18,22,4,22,0.00
2013-4-3,43.4,33.1,23.4,22.0,18.1,13.2,80,56,31,30.45,30.30,18,2,18,0.00
2013-4-4,59.3,42.8,24.5,36.2,27.1,17.0,76,56,36,30.32,29.95,21,4,21,0.00
2013-4-5,45.9,39.1,33.1,34.6,28.8,20.2,88,67,53,30.23,29.99,19,2,19,0.00
2013-4-6,66.1,50.3,35.3,49.0,36.3,27.0,88,61,38,30.16,29.56,30,8,30,0.16
2013-4-7,56.7,46.1,36.9,49.9,38.9,31.9,89,76,55,29.96,29.56,24,6,24,0.00
2013-4-8,56.4,46.7,37.1,52.5,42.7,32.0,98,86,76,29.98,29.51,32,5,32,0.51
2013-4-9,44.2,40.0,38.2,43.0,38.9,37.2,97,96,94,30.01,29.84,24,4,24,0.18
2013-4-10,39.3,38.2,36.0,38.1,37.0,34.9,96,95,94,30.02,29.82,26,5,28,0.62
2013-4-11,41.4,39.1,36.3,40.6,38.1,35.0,98,96,94,29.91,29.55,33,4,33,0.57
2013-4-12,43.4,38.8,35.8,40.4,35.3,30.1,98,87,76,29.81,29.54,23,7,23,0.01
2013-4-13,42.9,37.3,31.8,31.1,29.3,27.1,89,73,56,29.99,29.81,22,7,23,0.00
2013-4-14,64.5,43.9,33.1,48.8,36.9,28.1,89,77,56,30.01,29.62,29,5,29,0.00
2013-4-15,66.5,55.2,42.4,54.9,48.6,39.8,92,79,57,29.95,29.61,39,8,46,0.33
2013-4-16,56.6,44.6,36.7,40.5,36.6,33.5,93,75,49,30.27,29.93,16,3,16,0.01
2013-4-17,44.0,41.9,39.9,43.2,36.1,32.5,97,80,66,30.31,29.78,25,4,25,2.18
2013-4-18,63.1,49.3,40.7,59.3,47.6,35.1,99,94,78,29.85,29.35,33,5,33,2.08
2013-4-19,42.2,37.3,33.7,35.2,31.0,27.0,90,78,67,29.89,29.42,33,11,33,0.05
2013-4-20,46.1,36.3,29.7,29.0,23.6,19.9,82,61,38,30.42,29.86,17,5,17,0.01
2013-4-21,51.5,42.4,30.8,33.4,28.2,23.5,83,58,41,30.52,30.30,22,6,22,0.00
2013-4-22,66.8,53.7,41.3,42.6,35.7,31.4,69,52,36,30.31,30.01,16,5,23,0.00
2013-4-23,56.0,46.8,37.7,49.9,42.2,35.9,95,85,58,30.02,29.87,18,3,18,0.53
2013-4-24,52.2,43.2,36.9,36.3,31.4,27.7,91,65,42,30.07,29.92,18,5,18,0.07
2013-4-25,51.7,44.2,37.0,37.2,33.5,30.3,89,67,46,30.30,30.01,20,6,20,0.02
2013-4-26,67.8,53.2,34.4,48.1,39.6,28.6,83,61,46,30.32,30.18,28,7,28,0.00
2013-4-27,68.5,57.5,44.5,49.4,44.8,40.6,92,65,43,30.25,29.98,18,3,18,0.00
2013-4-28,68.6,57.2,51.4,55.4,49.0,42.2,91,74,59,30.00,29.79,13,1,13,0.00
2013-4-29,72.7,62.2,49.5,56.9,53.0,47.3,96,74,51,29.87,29.71,24,5,24,0.00
2013-4-30,85.6,72.7,62.3,62.1,58.7,55.3,84,64,38,29.87,29.70,29,9,29,0.00
2013-5-1,85.2,74.3,53.2,61.1,56.4,46.5,78,56,36,30.10,29.85,20,5,20,0.00
2013-5-2,64.8,47.7,42.1,46.3,41.9,37.0,94,81,67,30.22,30.08,21,3,21,0.56
2013-5-3,48.1,43.1,38.6,46.7,41.5,36.7,100,94,91,30.16,29.96,19,3,19,0.14
2013-5-4,68.5,57.2,46.2,53.7,48.0,44.2,94,74,50,30.02,29.95,20,2,20,0.00
2013-5-5,69.9,59.1,49.0,52.2,46.2,40.7,85,64,46,30.02,29.96,13,2,19,0.00
2013-5-6,71.3,59.9,49.2,48.8,42.5,39.5,75,55,33,30.02,29.95,14,1,19,0.00
2013-5-7,76.8,62.0,46.0,51.6,45.5,40.7,91,58,33,30.03,29.95,15,1,15,0.00
2013-5-8,79.5,62.8,46.7,55.4,47.8,43.6,96,63,33,30.01,29.92,14,1,14,0.00
2013-5-9,69.7,58.1,46.1,60.4,52.2,44.8,95,82,59,29.93,29.83,18,1,19,0.30
2013-5-10,46.4,44.7,42.9,45.0,43.0,41.0,97,94,90,29.97,29.77,17,2,17,0.25
2013-5-11,56.4,48.3,40.7,51.1,39.3,29.1,97,74,42,30.01,29.79,24,5,24,0.00
2013-5-12,55.0,45.6,38.4,34.6,30.7,27.1,82,57,36,30.10,30.01,22,4,22,0.00
2013-5-13,63.2,47.4,33.0,40.2,34.9,30.1,95,65,30,30.17,29.96,15,2,15,0.00
2013-5-14,87.5,69.0,48.8,62.8,51.9,36.3,73,56,33,29.96,29.53,24,4,24,0.00
2013-5-15,83.8,73.3,59.0,61.2,54.3,45.8,86,53,29,29.79,29.55,24,2,24,0.00
2013-5-16,82.0,64.6,51.8,58.2,50.2,40.1,94,63,26,29.94,29.78,19,1,19,0.00
2013-5-17,65.5,58.0,52.9,52.4,47.2,41.2,81,68,55,30.04,29.92,19,1,19,0.01
2013-5-18,77.9,65.3,51.4,66.4,57.1,46.2,89,76,60,30.03,29.91,17,1,17,0.00
2013-5-19,85.2,70.9,57.6,69.6,62.6,55.1,94,76,53,29.93,29.71,22,2,22,0.00
2013-5-20,88.5,77.7,66.5,69.1,63.3,57.7,90,64,38,29.72,29.62,27,4,27,0.23
2013-5-21,81.0,71.1,62.7,66.8,62.3,57.6,95,76,50,29.68,29.59,24,4,24,0.03
2013-5-22,71.9,64.8,52.6,66.5,61.4,51.1,97,89,63,29.73,29.57,15,1,15,0.57
2013-5-23,54.1,49.2,40.5,52.7,45.1,35.5,96,86,71,30.29,29.72,18,2,18,0.02
2013-5-24,61.2,48.5,40.4,43.3,37.8,34.4,86,68,46,30.44,30.29,14,1,14,0.00
2013-5-25,57.9,50.5,40.6,44.6,39.1,33.5,90,66,42,30.38,30.27,13,0,13,0.00
2013-5-26,65.3,53.0,40.2,51.5,44.3,36.5,91,74,49,30.29,30.13,16,1,16,0.06
2013-5-27,56.3,53.5,51.6,53.4,50.6,43.7,96,90,73,30.14,29.85,22,2,22,0.00
2013-5-28,75.9,65.3,52.6,71.1,62.6,51.6,99,91,74,29.86,29.62,23,3,23,0.44
2013-5-29,84.5,71.7,63.1,70.3,65.7,61.8,97,83,60,29.89,29.73,16,2,16,0.00
2013-5-30,84.4,75.6,64.5,72.6,67.4,60.8,91,76,63,29.86,29.69,29,6,29,0.17
2013-5-31,78.1,69.9,62.6,68.5,64.7,61.7,98,84,65,29.80,29.66,20,4,28,0.24
2013-6-1,77.1,68.9,61.0,68.3,64.1,58.8,97,85,69,29.68,29.59,22,4,22,0.44
2013-6-2,61.4,55.1,44.2,59.7,50.6,42.3,95,85,68,30.01,29.64,14,2,14,0.00
2013-6-3,71.2,56.0,43.1,53.8,45.0,41.1,97,71,38,30.10,30.00,16,1,16,0.00
2013-6-4,70.8,58.7,47.0,51.6,46.4,42.2,95,66,39,30.15,30.05,13,1,13,0.00
2013-6-5,62.9,57.6,54.0,54.8,50.6,45.5,88,78,65,30.11,29.93,12,0,12,0.03
2013-6-6,62.0,56.0,53.7,55.1,52.2,47.0,95,87,71,29.94,29.86,14,0,14,0.09
2013-6-7,71.2,60.0,50.8,54.3,47.3,41.6,84,65,37,29.94,29.88,17,1,18,0.02
2013-6-9,68.4,67.0,65.4,58.7,58.1,57.5,76,73,71,29.79,29.77,5,0,5,0.00
2013-6-10,80.3,68.1,59.5,68.7,63.0,57.8,97,84,61,29.83,29.71,8,0,8,0.00
2013-6-11,87.5,72.9,59.9,68.4,63.8,58.8,97,76,48,29.88,29.74,20,1,20,0.01
2013-6-12,79.1,69.7,62.9,68.2,64.8,61.6,97,85,68,29.86,29.56,20,1,20,0.71
2013-6-13,77.5,66.5,56.9,63.7,57.9,51.4,97,75,54,30.03,29.62,17,1,17,0.01
2013-6-14,77.8,64.4,55.5,62.3,54.1,49.3,87,71,45,30.11,29.98,14,0,14,0.00
2013-6-15,80.3,67.5,55.1,70.6,62.3,48.8,95,84,69,30.03,29.80,19,1,19,0.14
2013-6-16,91.3,77.6,64.6,70.1,63.9,58.1,89,66,34,29.86,29.80,22,2,22,0.03
2013-6-17,92.5,73.0,58.4,65.5,58.9,53.2,94,66,31,29.91,29.78,20,1,20,0.00
2013-6-18,72.0,62.0,54.5,59.7,53.1,45.7,92,74,52,30.05,29.90,17,1,17,0.00
2013-6-19,74.3,63.3,50.2,55.9,49.0,41.3,92,62,41,30.12,30.04,13,1,13,0.00
2013-6-20,55.8,55.7,55.7,41.6,41.6,41.6,59,59,59,30.08,30.08,0,0,4,0.00
2013-6-21,77.7,71.5,67.5,69.6,67.2,64.7,96,87,73,30.11,29.82,27,2,27,0.79
2013-6-22,79.2,71.6,66.4,74.2,69.0,65.5,98,92,82,30.10,29.90,22,2,22,1.98
2013-6-23,87.3,75.9,66.8,76.3,69.2,64.6,95,80,63,29.99,29.82,23,3,23,0.00
2013-6-24,84.8,73.1,66.8,73.6,68.1,64.7,95,85,64,30.00,29.78,28,3,28,0.13
2013-6-25,82.3,72.1,65.2,75.3,68.9,63.7,98,90,72,29.93,29.76,24,1,24,0.70
2013-6-26,78.3,72.0,66.5,71.8,68.5,65.6,98,89,78,29.78,29.66,12,1,12,1.14
2013-6-27,91.9,77.7,65.2,78.1,69.7,64.3,99,79,48,29.73,29.63,17,1,17,0.00
2013-6-28,82.8,74.2,66.7,68.7,64.0,61.3,89,72,51,29.65,29.54,19,2,19,0.05
2013-6-29,71.7,66.0,63.5,63.4,60.9,57.3,94,84,64,29.75,29.55,20,1,20,0.01
2013-6-30,78.3,68.5,60.3,62.6,55.1,45.4,86,64,37,29.96,29.75,16,2,18,0.00
2013-7-1,77.3,75.4,64.9,58.3,54.3,48.8,68,48,40,30.03,29.96,21,3,21,0.00
2013-7-2,74.2,65.4,60.2,57.8,55.2,51.4,84,71,49,30.06,30.02,14,1,14,0.00
2013-7-3,69.2,64.3,60.5,65.0,60.8,55.7,93,88,82,30.03,29.98,7,0,7,0.13
2013-7-4,83.5,71.7,57.5,69.2,63.0,56.4,98,76,52,30.07,29.97,15,1,15,0.00
2013-7-5,84.8,74.1,62.1,70.1,64.1,59.4,95,73,46,30.04,29.95,18,1,18,0.00
2013-7-6,84.3,74.2,63.4,70.9,66.6,61.4,96,78,55,30.01,29.91,12,1,12,0.00
2013-7-7,88.3,78.8,69.5,74.5,70.3,66.1,91,76,57,29.96,29.87,13,1,13,0.00
2013-7-8,88.4,78.4,71.2,78.7,72.9,69.5,96,84,70,29.94,29.85,25,2,25,0.19
2013-7-9,84.2,77.5,70.2,78.5,74.4,69.3,98,90,79,29.93,29.79,17,1,17,0.17
2013-7-10,84.7,77.6,65.0,76.0,67.5,58.9,95,73,48,29.95,29.77,15,1,15,0.00
2013-7-11,82.5,70.6,59.5,63.5,58.8,52.6,93,69,43,30.06,29.95,10,0,10,0.00
2013-7-12,83.9,68.8,54.9,62.0,57.2,53.3,97,70,37,30.12,30.04,9,0,10,0.00
2013-7-13,82.8,71.4,59.0,65.5,61.0,57.0,98,73,43,30.12,30.06,15,1,15,0.00
2013-7-14,87.0,76.7,64.4,72.2,67.8,61.5,94,75,54,30.18,30.11,12,0,12,0.00
2013-7-15,91.1,79.2,68.3,79.5,72.5,66.5,96,81,62,30.22,30.16,14,0,14,0.00
2013-7-16,94.3,82.8,73.0,78.8,75.0,71.7,97,79,57,30.24,30.17,13,1,13,0.00
2013-7-17,95.7,84.9,74.6,79.5,75.2,71.8,93,74,53,30.24,30.09,12,1,12,0.00
2013-7-18,94.5,85.3,76.3,78.5,75.1,73.1,91,73,53,30.12,29.87,16,1,16,0.00
2013-7-19,95.2,85.2,76.2,77.0,73.5,69.1,85,69,49,29.87,29.68,20,4,20,0.00
2013-7-20,92.1,77.4,66.8,71.4,65.7,61.0,87,69,41,29.91,29.73,14,0,14,0.00
2013-7-21,86.4,72.1,64.1,71.8,65.3,60.2,94,80,56,29.92,29.78,9,1,17,0.07
2013-7-22,87.8,75.9,65.4,74.0,68.5,61.7,98,80,52,29.84,29.66,28,1,28,0.01
2013-7-23,79.6,70.6,59.0,65.6,61.0,55.1,88,73,48,29.95,29.63,18,1,18,0.01
2013-7-24,75.3,64.2,54.3,58.7,54.9,51.8,95,74,49,30.04,29.94,14,0,14,0.00
2013-7-25,81.6,67.7,53.9,62.2,57.8,52.2,97,73,49,30.08,29.96,11,1,11,0.00
2013-7-26,69.8,65.5,60.9,67.8,62.1,59.6,97,89,72,29.96,29.83,21,2,21,0.90
2013-7-27,63.4,59.1,55.1,60.0,53.2,48.6,98,82,62,29.88,29.82,16,2,16,0.00
2013-7-28,70.3,63.9,55.1,56.4,53.2,50.0,87,69,53,29.97,29.85,15,2,15,0.02
2013-7-29,78.6,64.6,55.9,62.6,56.9,52.5,92,77,52,30.15,29.97,11,0,11,0.00
2013-7-30,74.8,64.5,55.3,64.2,60.2,53.9,98,87,62,30.16,30.05,12,1,13,0.06
2013-7-31,78.7,67.5,62.4,69.8,64.8,60.8,97,92,70,30.05,29.90,5,0,12,0.25
2013-8-1,85.5,69.4,59.0,69.7,60.1,55.8,99,76,40,29.95,29.88,12,0,12,0.00
2013-8-2,85.5,71.8,61.4,71.6,64.2,57.9,97,79,57,29.91,29.80,14,1,14,1.24
2013-8-3,82.2,70.9,61.1,61.2,58.4,53.8,90,67,41,30.07,29.90,9,0,9,0.00
2013-8-4,75.6,65.6,59.0,63.8,58.9,55.4,94,80,59,30.17,30.07,14,0,14,0.00
2013-8-5,75.1,64.8,56.8,65.3,60.0,55.1,96,85,68,30.09,29.84,15,1,17,0.94
2013-8-6,85.3,72.5,64.5,75.1,69.3,63.3,98,90,70,29.85,29.77,14,1,14,0.00
2013-8-7,88.6,76.8,64.4,76.6,70.3,62.3,96,82,52,29.91,29.72,10,1,20,0.00
2013-8-8,79.5,68.7,62.3,63.9,59.1,53.1,97,74,45,30.00,29.90,13,0,13,0.00
2013-8-9,83.8,71.0,56.9,69.2,62.3,54.7,96,76,58,29.99,29.92,11,0,11,0.00
2013-8-10,83.0,70.4,61.5,68.4,61.8,57.8,95,76,46,30.09,29.99,9,0,9,0.00
2013-8-11,77.8,68.2,57.7,67.6,62.4,56.2,100,83,60,30.09,29.98,9,0,11,0.06
2013-8-12,83.9,73.5,66.7,72.2,68.1,62.8,97,84,64,29.99,29.82,11,0,11,0.00
2013-8-13,72.5,63.7,55.2,63.1,53.6,49.4,89,71,48,30.13,29.90,14,1,14,0.00
2013-8-14,77.1,62.4,52.3,57.5,53.5,50.4,96,75,45,30.20,30.10,12,0,12,0.00
2013-8-15,79.1,65.4,54.1,62.3,56.0,51.2,91,74,44,30.13,30.05,10,0,10,0.00
2013-8-16,84.1,67.7,54.5,65.8,57.5,52.9,97,73,41,30.15,30.08,13,0,13,0.00
2013-8-17,82.0,67.5,55.2,69.0,58.0,53.9,99,75,44,30.21,30.13,12,0,12,0.00
2013-8-18,85.2,68.1,56.3,68.7,59.4,54.9,98,77,45,30.18,30.06,11,0,11,0.00
2013-8-19,84.5,70.5,56.3,68.3,62.6,55.1,98,78,53,30.08,29.98,14,1,14,0.00
2013-8-20,85.9,74.0,62.9,69.8,65.4,61.3,97,76,52,30.06,29.98,15,1,15,0.00
2013-8-21,89.7,77.5,66.4,73.8,68.2,63.8,94,75,52,30.02,29.89,18,2,18,0.12
2013-8-22,74.2,70.8,66.3,70.3,67.4,64.2,95,89,83,30.08,29.94,20,1,20,0.14
2013-8-23,82.0,68.8,58.5,64.7,58.3,53.4,98,73,40,30.14,30.06,14,1,14,0.00
2013-8-24,86.0,70.3,56.2,68.3,61.7,54.8,99,77,50,30.22,30.13,11,1,11,0.00
2013-8-25,91.0,77.5,65.5,73.8,66.2,57.0,78,69,50,30.19,30.06,18,3,18,0.00
2013-8-26,91.7,80.4,71.5,77.8,71.2,64.3,90,74,60,30.09,29.92,20,2,20,0.00
2013-8-27,95.5,84.0,74.7,77.3,74.0,70.9,89,73,51,29.93,29.76,23,3,23,0.00
2013-8-28,86.9,77.7,67.8,73.8,70.7,65.6,94,80,61,29.99,29.76,9,1,13,0.00
2013-8-29,89.7,75.5,65.8,75.5,68.3,64.3,98,81,49,30.03,29.92,12,0,12,0.00
2013-8-30,97.7,72.6,65.6,78.3,67.9,63.9,96,87,48,29.93,29.69,24,1,24,0.67
2013-8-31,76.2,70.6,66.2,70.0,67.1,64.1,97,89,76,29.81,29.75,5,0,10,0.01
2013-9-1,86.0,72.9,63.8,74.7,68.4,62.3,98,87,66,29.77,29.66,23,0,23,1.06
2013-9-2,81.5,68.1,61.2,68.5,62.0,55.0,97,82,50,29.95,29.76,12,1,12,0.00
2013-9-3,80.2,65.0,55.4,62.1,56.4,52.2,92,75,49,30.06,29.95,8,0,8,0.00
2013-9-4,84.0,68.2,54.9,65.8,60.7,53.5,98,80,51,30.08,30.00,13,0,13,0.00
2013-9-5,74.2,65.8,54.2,65.8,56.5,49.4,93,74,49,30.23,30.07,10,1,17,0.00
2013-9-6,85.3,68.5,52.3,70.3,60.8,50.2,96,78,58,30.19,29.96,11,1,11,0.00
2013-9-7,85.9,73.3,63.8,71.7,67.2,62.0,96,83,53,29.96,29.83,11,1,15,0.04
2013-9-8,72.3,69.5,65.8,68.5,66.3,63.3,95,90,85,30.00,29.91,17,1,17,0.00
2013-9-9,91.3,78.9,67.0,79.1,72.2,65.3,96,81,64,29.93,29.75,17,2,17,0.00
2013-9-10,95.7,84.4,74.3,72.8,68.2,65.5,75,60,38,29.91,29.79,22,4,22,0.00
2013-9-11,85.0,76.7,68.8,73.5,68.8,65.8,91,77,61,30.01,29.89,14,1,14,0.08
2013-9-12,80.9,68.5,60.4,66.8,61.9,55.5,97,81,55,30.06,29.90,20,1,20,0.05
2013-9-13,68.3,57.6,49.8,55.2,47.6,44.5,90,70,47,30.16,30.05,16,1,16,0.00
2013-9-14,71.3,57.1,44.4,53.1,47.9,42.8,97,74,48,30.16,29.99,14,1,14,0.00
2013-9-15,58.5,56.0,53.5,57.7,52.6,45.4,97,89,64,30.16,29.96,11,1,11,1.02
2013-9-16,66.8,54.7,46.6,57.2,48.9,44.2,97,82,54,30.35,30.15,16,1,16,0.01
2013-9-17,69.6,57.1,44.8,57.4,51.5,43.5,98,83,60,30.32,30.08,14,2,14,0.01
2013-9-18,78.5,67.8,59.0,68.7,61.9,53.8,90,82,69,30.08,29.87,17,3,17,0.01
2013-9-19,80.5,73.3,67.7,74.4,69.9,65.7,98,89,77,29.90,29.70,20,3,20,0.20
2013-9-20,75.8,67.7,57.3,68.0,61.8,53.5,95,82,64,29.78,29.68,22,2,22,0.00
2013-9-21,65.8,57.1,50.5,54.1,50.0,46.3,93,78,59,29.93,29.76,13,1,13,0.00
2013-9-22,72.6,54.8,46.9,53.5,47.8,44.4,94,79,47,30.05,29.92,8,0,9,0.00
2013-9-23,66.5,53.9,44.3,53.6,48.2,43.0,97,83,57,30.11,30.01,16,0,16,0.00
2013-9-24,71.0,57.3,46.8,56.2,50.7,45.5,97,80,55,30.04,29.92,15,1,15,0.00
2013-9-25,70.9,57.9,48.7,57.7,51.9,47.3,98,82,55,29.97,29.91,7,0,14,0.00
2013-9-26,75.8,58.8,47.4,61.2,52.0,46.3,99,81,43,30.07,29.94,12,0,12,0.00
2013-9-27,80.7,62.9,50.0,62.5,54.4,48.6,98,77,47,30.14,30.02,15,1,15,0.00
2013-9-28,82.0,68.0,54.9,65.8,58.6,51.7,93,74,49,30.04,29.83,23,4,23,0.18
2013-9-29,74.4,58.6,48.3,60.0,50.9,44.8,97,79,41,30.03,29.89,9,0,11,0.17
2013-9-30,73.6,57.9,44.4,57.0,49.6,43.2,98,77,44,29.98,29.82,14,1,14,0.00
2013-10-1,80.3,67.9,58.2,67.1,62.1,52.0,96,82,62,29.92,29.82,19,3,23,0.00
2013-10-2,77.2,63.8,53.2,63.2,52.8,44.5,97,72,33,30.07,29.91,12,0,12,0.00
2013-10-3,75.7,68.1,56.9,70.1,64.9,54.0,97,90,81,29.96,29.80,17,2,17,0.02
2013-10-4,70.0,66.7,64.5,67.2,64.4,62.4,97,92,87,29.95,29.85,11,1,12,0.11
2013-10-5,77.8,68.5,62.9,73.5,66.6,62.0,99,94,78,29.92,29.70,13,1,13,0.38
2013-10-6,63.7,53.9,45.6,62.4,47.6,41.7,97,80,55,29.74,29.64,16,2,16,0.14
2013-10-7,71.7,54.4,44.7,51.0,46.8,42.0,93,78,45,30.05,29.72,18,1,18,0.00
2013-10-8,77.8,58.6,43.0,58.0,49.4,41.9,98,75,42,30.15,30.05,12,1,12,0.00
2013-10-9,72.4,58.1,48.1,53.6,48.8,45.8,96,73,40,30.21,30.11,9,1,14,0.00
2013-10-10,75.7,58.1,45.3,61.1,51.1,44.0,98,80,46,30.15,30.02,8,0,9,0.00
2013-10-11,74.7,61.7,51.2,60.7,54.3,49.8,96,78,56,30.05,29.92,20,2,20,0.00
2013-10-12,68.7,60.8,51.5,64.3,54.7,43.7,96,81,63,30.14,29.91,15,2,15,0.28
2013-10-13,69.3,51.8,41.0,50.1,42.8,39.2,96,75,38,30.39,30.14,11,0,11,0.00
2013-10-14,61.7,49.4,39.0,48.8,43.6,37.4,96,82,59,30.40,30.12,8,1,13,0.00
2013-10-15,62.3,55.8,47.2,60.8,52.3,44.2,97,88,81,30.12,29.71,18,3,18,0.06
2013-10-16,53.3,50.1,46.2,49.1,46.7,42.5,95,88,84,29.91,29.78,15,3,15,0.01
2013-10-17,50.7,47.1,41.4,49.3,45.5,40.0,96,94,89,29.89,29.79,11,0,11,0.47
2013-10-18,48.7,43.8,37.9,44.7,40.3,36.9,97,88,75,29.95,29.80,18,2,18,0.00
2013-10-19,53.6,44.5,38.4,42.3,38.8,35.4,94,82,55,29.91,29.75,12,2,19,0.03
2013-10-20,56.1,46.6,34.7,47.8,41.9,32.8,96,84,68,29.86,29.70,18,1,18,0.01
2013-10-21,52.9,43.4,33.0,47.5,34.2,26.3,82,70,54,29.94,29.75,19,3,19,0.00
2013-10-22,44.0,36.8,30.2,33.7,29.4,25.8,91,75,58,29.98,29.90,12,1,12,0.00
2013-10-23,46.4,37.5,30.8,32.4,29.4,25.8,92,74,50,30.01,29.91,14,2,14,0.00
2013-10-24,42.0,37.3,32.8,30.5,28.5,25.9,81,71,55,30.29,29.99,9,2,11,0.00
2013-10-25,52.2,40.4,27.2,33.3,28.6,23.9,89,64,45,30.39,29.98,27,4,27,0.00
2013-10-26,54.7,45.4,34.6,40.2,32.2,28.9,83,60,49,30.06,29.80,22,4,22,0.00
2013-10-27,55.4,41.3,27.9,36.4,31.3,25.6,100,70,44,30.05,29.93,21,2,21,0.00
2013-10-28,49.3,42.2,34.4,43.0,36.8,30.4,94,81,73,30.38,30.03,20,1,20,0.00
2013-10-29,53.9,44.5,36.0,45.8,40.1,33.4,95,85,70,30.37,30.12,14,1,14,0.00
2013-10-30,58.9,51.9,42.5,57.7,49.8,40.1,98,93,85,30.13,29.72,17,2,17,0.41
2013-10-31,61.9,57.9,44.7,61.3,57.0,42.2,98,97,91,29.71,29.17,17,3,21,0.56
2013-11-1,48.2,44.8,42.0,43.8,41.9,38.7,95,89,82,29.71,29.31,24,3,24,0.06
2013-11-2,46.8,41.6,37.0,43.2,39.1,35.7,97,91,79,30.13,29.71,10,0,10,0.01
2013-11-3,53.1,42.1,30.8,44.5,37.0,29.3,98,83,56,30.29,30.13,16,2,16,0.00
2013-11-4,57.1,49.7,43.1,46.2,41.1,37.3,83,73,58,30.25,30.06,26,6,26,0.00
2013-11-5,56.5,52.5,49.8,51.0,48.1,45.3,95,85,76,30.23,29.89,28,4,28,0.04
2013-11-6,56.2,46.2,33.6,55.4,44.0,28.2,97,92,76,30.15,29.71,27,5,27,0.89
2013-11-7,42.6,35.8,29.1,33.6,30.3,25.8,89,81,62,30.22,30.14,13,4,15,0.00
2013-11-8,47.7,38.9,27.0,35.4,31.4,25.0,95,75,59,30.32,29.88,31,4,31,0.00
2013-11-9,56.3,48.6,40.7,42.7,38.1,27.0,79,67,55,30.07,29.79,30,9,30,0.00
2013-11-10,50.8,42.0,34.4,33.9,31.2,27.9,79,66,47,30.30,30.06,18,4,18,0.00
2013-11-11,45.4,36.0,23.4,36.5,29.7,18.7,93,78,65,30.52,30.05,19,4,19,0.15
2013-11-12,32.9,25.7,21.0,22.9,19.0,16.1,86,76,62,30.71,30.52,15,4,15,0.02
2013-11-13,40.8,30.6,19.9,22.2,18.7,14.6,81,63,41,30.58,30.13,24,8,26,0.00
2013-11-14,49.1,40.5,32.8,30.9,26.4,21.4,65,57,48,30.14,29.89,22,6,22,0.00
2013-11-15,54.0,43.5,37.1,36.5,32.2,27.2,86,65,48,29.95,29.90,17,5,17,0.00
2013-11-16,59.8,50.6,41.2,57.2,48.4,35.4,96,92,78,29.91,29.52,32,10,33,0.30
2013-11-17,67.0,54.5,40.5,63.0,51.8,36.0,97,90,81,29.66,29.07,49,10,49,0.79
2013-11-18,41.4,36.3,29.2,36.3,29.2,24.1,85,75,61,30.26,29.66,24,8,28,0.00
2013-11-19,40.4,32.3,24.2,30.3,26.7,20.9,92,80,64,30.38,30.25,12,2,12,0.00
2013-11-20,45.6,37.6,30.6,36.8,30.5,27.0,93,76,53,30.28,30.10,22,5,22,0.06
2013-11-21,47.1,43.0,38.7,43.2,40.1,36.8,95,90,84,30.20,30.09,5,0,7,0.00
2013-11-22,42.0,34.4,26.0,39.7,29.6,19.5,95,82,69,30.46,30.18,18,4,18,0.02
2013-11-23,26.1,21.0,14.8,19.6,11.3,5.7,80,66,56,30.72,30.41,18,7,23,0.00
2013-11-24,26.5,19.1,10.8,11.4,7.6,4.9,80,61,44,30.73,30.33,24,5,24,0.00
2013-11-25,31.3,27.3,22.1,27.2,20.5,10.1,89,76,55,30.33,30.06,24,7,24,0.00
2013-11-26,32.7,27.5,16.0,28.1,21.3,7.4,88,77,63,30.18,30.02,21,4,21,0.00
2013-11-27,27.1,19.7,11.8,16.1,11.6,6.2,81,71,59,30.27,30.16,16,4,16,0.01
2013-11-28,31.4,25.2,18.1,19.0,16.1,13.4,83,68,58,30.50,30.19,15,3,15,0.00
2013-11-29,31.9,19.2,16.5,23.1,14.6,12.8,85,82,70,30.52,30.40,13,1,13,0.00
2013-11-30,40.9,35.7,28.7,32.1,29.2,25.2,87,77,69,30.06,30.05,8,1,8,0.00
2013-12-1,43.3,32.9,26.5,34.0,28.0,23.2,92,83,61,30.12,29.98,11,0,11,0.01
2013-12-2,42.0,33.4,22.6,34.6,28.6,20.6,96,83,61,29.98,29.75,19,2,19,0.08
2013-12-3,42.7,39.3,35.3,42.2,38.4,33.8,98,97,94,29.75,29.66,15,2,16,0.04
2013-12-4,53.5,46.1,38.6,53.2,45.3,35.8,100,97,90,29.73,29.47,32,4,32,0.04
2013-12-5,38.4,26.1,19.0,35.7,19.8,12.0,90,77,67,30.27,29.63,28,8,28,0.00
2013-12-6,19.1,15.7,10.8,12.6,9.0,3.9,79,74,67,30.57,30.25,14,4,14,0.00
2013-12-7,18.7,11.4,5.4,7.5,4.1,-0.3,81,72,59,30.73,30.57,13,3,13,0.00
2013-12-8,25.4,20.2,10.3,23.9,16.2,4.6,94,85,69,30.64,29.94,11,2,19,0.00
2013-12-9,24.5,14.3,-3.0,22.8,9.6,-8.3,93,81,69,30.23,29.93,21,6,27,0.01
2013-12-10,20.9,9.7,-5.9,12.9,3.3,-9.8,85,75,64,30.31,30.00,22,7,24,0.00
2013-12-11,17.9,10.5,-1.5,14.3,4.6,-7.8,89,77,62,30.58,30.28,17,4,17,0.01
2013-12-12,17.5,8.8,-3.5,11.3,2.2,-8.9,82,74,65,30.57,30.23,22,5,22,0.00
2013-12-13,31.2,24.6,14.3,27.2,19.7,10.6,88,82,73,30.23,30.13,14,2,14,0.04
2013-12-14,31.0,27.2,20.8,27.7,25.1,18.3,95,92,82,30.13,29.93,18,3,18,0.00
2013-12-15,21.2,13.9,8.5,18.4,8.3,-0.4,90,78,66,30.15,29.91,19,6,19,0.00
2013-12-16,20.1,11.2,-1.1,14.7,5.4,-6.7,89,77,66,30.20,30.04,12,2,12,0.00
2013-12-17,33.2,24.5,15.6,26.7,19.9,12.7,93,83,67,30.08,29.94,22,7,22,0.01
2013-12-18,35.7,26.0,13.8,29.8,17.4,8.8,85,71,44,30.14,29.80,27,7,27,0.00
2013-12-19,35.2,32.4,25.7,32.7,29.1,22.9,95,88,79,29.94,29.80,18,2,18,0.01
2013-12-20,33.8,32.2,28.5,32.5,30.9,27.2,96,95,95,29.83,29.74,15,1,15,0.00
2013-12-21,33.5,30.0,27.3,32.6,29.0,26.0,97,96,95,29.88,29.62,28,2,28,0.00
2013-12-22,32.3,28.0,22.3,31.0,26.3,20.1,96,93,90,30.12,29.61,19,3,19,0.00
2013-12-23,23.1,11.6,-2.7,21.1,8.0,-7.3,92,85,78,30.45,30.11,14,6,17,0.00
2013-12-24,16.1,5.5,-2.5,12.6,1.0,-6.9,87,82,71,30.59,30.38,13,3,13,0.00
2013-12-25,25.0,21.8,16.1,22.5,19.0,12.4,93,89,81,30.38,30.09,19,5,19,0.00
2013-12-26,28.8,22.7,11.2,26.2,19.0,7.8,92,86,79,30.29,30.09,16,3,16,0.00
2013-12-27,39.4,31.1,17.8,32.5,27.0,15.7,95,85,75,30.29,30.04,24,4,24,0.10
2013-12-28,45.7,38.7,28.8,35.3,32.3,26.0,93,78,64,30.07,29.77,21,6,21,0.29
2013-12-29,39.0,25.4,4.7,32.7,20.4,-1.7,92,81,71,30.22,29.74,15,5,18,0.01
2013-12-30,7.5,2.6,-4.4,3.0,-3.8,-9.8,91,74,65,30.36,30.21,9,3,11,0.00
2013-12-31,9.5,5.4,-1.6,5.6,1.3,-5.5,87,83,74,30.39,30.23,13,2,13,0.00
2014-1-1,19.4,13.4,7.3,16.9,10.6,4.2,91,88,85,30.35,30.22,18,2,18,0.00
2014-1-2,18.1,9.9,-4.8,13.8,6.0,-8.9,90,84,75,30.45,30.19,11,2,12,0.00